createdAt,value
2018-10-18T00:00:32.797Z,21.25
2018-10-18T00:03:01.120Z,20.77
2018-10-18T00:05:29.430Z,23.00
2018-10-18T00:07:57.760Z,20.90
2018-10-18T00:10:26.142Z,21.20
2018-10-18T00:12:54.431Z,21.68
2018-10-18T00:15:22.690Z,20.27
2018-10-18T00:17:50.982Z,19.75
2018-10-18T00:20:19.262Z,22.27
2018-10-18T00:22:47.590Z,20.57
2018-10-18T00:25:16.317Z,17.98
2018-10-18T00:27:44.618Z,20.12
2018-10-18T00:30:14.404Z,17.32
2018-10-18T00:32:43.398Z,22.60
2018-10-18T00:35:11.877Z,20.10
2018-10-18T00:37:40.386Z,17.50
2018-10-18T00:40:10.212Z,18.10
2018-10-18T00:42:38.578Z,23.95
2018-10-18T00:45:07.546Z,21.75
2018-10-18T00:47:35.890Z,26.10
2018-10-18T00:50:04.387Z,20.70
2018-10-18T00:52:32.650Z,22.70
2018-10-18T00:55:00.977Z,23.83
2018-10-18T00:57:29.333Z,24.45
2018-10-18T00:59:57.679Z,22.73
2018-10-18T01:02:25.995Z,24.75
2018-10-18T01:04:54.355Z,21.33
2018-10-18T01:07:22.668Z,22.30
2018-10-18T01:09:50.973Z,23.05
2018-10-18T01:12:19.331Z,18.60
2018-10-18T01:14:47.486Z,23.85
2018-10-18T01:17:15.754Z,23.22
2018-10-18T01:19:44.097Z,21.45
2018-10-18T01:22:12.456Z,23.83
2018-10-18T01:24:40.733Z,23.47
2018-10-18T01:27:09.059Z,21.00
2018-10-18T01:29:37.305Z,25.80
2018-10-18T01:32:06.299Z,18.87
2018-10-18T01:34:34.713Z,23.98
2018-10-18T01:37:03.010Z,19.48
2018-10-18T01:39:31.311Z,18.30
2018-10-18T01:41:59.600Z,18.05
2018-10-18T01:44:28.182Z,19.15
2018-10-18T01:46:56.535Z,21.82
2018-10-18T01:49:24.774Z,21.17
2018-10-18T01:51:53.024Z,22.02
2018-10-18T01:54:21.322Z,19.95
2018-10-18T01:56:49.659Z,21.37
2018-10-18T01:59:17.951Z,25.65
2018-10-18T02:01:46.206Z,19.23
2018-10-18T02:04:14.558Z,20.75
2018-10-18T02:06:42.813Z,19.07
2018-10-18T02:09:11.993Z,18.07
2018-10-18T02:11:40.742Z,22.32
2018-10-18T02:14:09.177Z,19.23
2018-10-18T02:16:37.474Z,20.80
2018-10-18T02:19:05.959Z,19.95
2018-10-18T02:21:34.193Z,18.70
2018-10-18T02:24:02.544Z,23.15
2018-10-18T02:26:30.800Z,19.52
2018-10-18T02:28:59.138Z,19.32
2018-10-18T02:31:27.399Z,20.40
2018-10-18T02:33:55.665Z,19.98
2018-10-18T02:36:23.976Z,21.45
2018-10-18T02:38:52.237Z,20.95
2018-10-18T02:41:20.530Z,19.02
2018-10-18T02:43:48.890Z,24.98
2018-10-18T02:46:17.153Z,24.37
2018-10-18T02:48:45.485Z,21.35
2018-10-18T02:51:13.814Z,20.32
2018-10-18T02:53:42.050Z,21.00
2018-10-18T02:56:10.291Z,20.65
2018-10-18T02:58:38.549Z,24.50
2018-10-18T03:01:06.811Z,24.40
2018-10-18T03:03:35.088Z,21.87
2018-10-18T03:06:03.407Z,22.15
2018-10-18T03:08:31.643Z,23.80
2018-10-18T03:11:00.087Z,20.72
2018-10-18T03:13:28.417Z,25.20
2018-10-18T03:15:56.740Z,23.35
2018-10-18T03:18:25.074Z,25.20
2018-10-18T03:20:53.335Z,23.27
2018-10-18T03:23:21.591Z,21.23
2018-10-18T03:25:49.926Z,22.37
2018-10-18T03:28:18.154Z,21.42
2018-10-18T03:30:46.439Z,24.00
2018-10-18T03:33:14.681Z,23.98
2018-10-18T03:35:42.958Z,20.45
2018-10-18T03:38:11.257Z,22.52
2018-10-18T03:40:39.556Z,17.35
2018-10-18T03:43:07.833Z,24.52
2018-10-18T03:45:36.113Z,18.12
2018-10-18T03:48:04.600Z,22.15
2018-10-18T03:50:33.110Z,16.80
2018-10-18T03:53:01.430Z,19.75
2018-10-18T03:55:29.760Z,16.85
2018-10-18T03:57:58.034Z,12.70
2018-10-18T04:00:26.278Z,14.65
2018-10-18T04:02:54.541Z,11.97
2018-10-18T04:05:22.873Z,14.55
2018-10-18T04:07:51.094Z,16.23
2018-10-18T04:10:19.335Z,12.82
2018-10-18T04:12:47.687Z,10.20
2018-10-18T04:15:15.967Z,11.83
2018-10-18T04:17:44.251Z,16.35
2018-10-18T04:20:12.458Z,11.50
2018-10-18T04:22:40.802Z,11.33
2018-10-18T04:25:09.118Z,4.47
2018-10-18T04:27:37.461Z,12.00
2018-10-18T04:30:06.361Z,10.32
2018-10-18T04:32:34.614Z,12.85
2018-10-18T04:35:02.897Z,9.50
2018-10-18T04:37:31.392Z,11.88
2018-10-18T04:39:59.774Z,11.40
2018-10-18T04:42:28.100Z,9.38
2018-10-18T04:44:56.348Z,15.23
2018-10-18T04:47:24.666Z,9.60
2018-10-18T04:49:52.835Z,9.45
2018-10-18T04:52:21.264Z,10.15
2018-10-18T04:54:49.487Z,15.28
2018-10-18T04:57:17.777Z,15.03
2018-10-18T04:59:46.049Z,10.88
2018-10-18T05:02:14.379Z,11.70
2018-10-18T05:04:52.986Z,10.63
2018-10-18T05:07:23.433Z,11.60
2018-10-18T05:09:51.786Z,10.60
2018-10-18T05:12:20.104Z,9.23
2018-10-18T05:14:48.392Z,16.65
2018-10-18T05:17:16.844Z,7.72
2018-10-18T05:19:45.133Z,8.43
2018-10-18T05:22:13.642Z,16.15
2018-10-18T05:24:41.886Z,9.58
2018-10-18T05:27:10.145Z,13.25
2018-10-18T05:29:38.428Z,9.88
2018-10-18T05:32:06.901Z,12.03
2018-10-18T05:34:35.347Z,12.28
2018-10-18T05:37:03.811Z,8.78
2018-10-18T05:39:32.097Z,13.80
2018-10-18T05:42:00.418Z,14.28
2018-10-18T05:44:28.686Z,9.38
2018-10-18T05:46:57.022Z,12.85
2018-10-18T05:49:26.213Z,34.23
2018-10-18T05:51:54.485Z,17.17
2018-10-18T05:54:23.107Z,11.18
2018-10-18T05:56:51.444Z,13.83
2018-10-18T05:59:19.726Z,12.50
2018-10-18T06:01:48.210Z,13.65
2018-10-18T06:04:16.517Z,11.57
2018-10-18T06:06:44.746Z,13.62
2018-10-18T06:09:17.043Z,13.05
2018-10-18T06:11:46.109Z,10.43
2018-10-18T06:14:14.414Z,13.78
2018-10-18T06:16:42.626Z,16.65
2018-10-18T06:19:11.250Z,10.48
2018-10-18T06:21:39.495Z,12.85
2018-10-18T06:24:07.735Z,11.90
2018-10-18T06:26:35.953Z,17.00
2018-10-18T06:29:04.334Z,16.25
2018-10-18T06:31:32.565Z,11.73
2018-10-18T06:34:00.821Z,16.82
2018-10-18T06:36:29.116Z,11.88
2018-10-18T06:38:57.434Z,13.15
2018-10-18T06:41:25.696Z,10.53
2018-10-18T06:43:53.948Z,10.30
2018-10-18T06:46:22.237Z,18.37
2018-10-18T06:48:50.547Z,9.63
2018-10-18T06:51:18.761Z,15.13
2018-10-18T06:53:47.093Z,16.57
2018-10-18T06:56:15.354Z,14.23
2018-10-18T06:58:43.662Z,13.45
2018-10-18T07:01:11.991Z,10.48
2018-10-18T07:03:40.262Z,18.05
2018-10-18T07:06:08.516Z,17.85
2018-10-18T07:08:36.795Z,13.70
2018-10-18T07:11:05.432Z,12.18
2018-10-18T07:13:33.675Z,13.80
2018-10-18T07:16:01.955Z,12.07
2018-10-18T07:18:30.172Z,13.78
2018-10-18T07:20:58.534Z,12.80
2018-10-18T07:23:26.799Z,9.63
2018-10-18T07:25:55.176Z,15.32
2018-10-18T07:28:23.502Z,20.62
2018-10-18T07:30:51.813Z,15.90
2018-10-18T07:33:20.109Z,8.68
2018-10-18T07:35:48.426Z,9.45
2018-10-18T07:38:16.718Z,14.03
2018-10-18T07:40:45.540Z,13.60
2018-10-18T07:43:14.663Z,17.05
2018-10-18T07:45:43.152Z,10.60
2018-10-18T07:48:11.447Z,14.75
2018-10-18T07:50:39.729Z,12.73
2018-10-18T07:53:08.033Z,15.18
2018-10-18T07:55:36.258Z,11.30
2018-10-18T07:58:04.754Z,10.58
2018-10-18T08:00:33.107Z,20.20
2018-10-18T08:03:01.387Z,11.48
2018-10-18T08:05:30.115Z,9.60
2018-10-18T08:07:58.530Z,16.15
2018-10-18T08:10:26.890Z,16.12
2018-10-18T08:12:55.282Z,12.37
2018-10-18T08:15:23.506Z,13.15
2018-10-18T08:17:51.802Z,8.40
2018-10-18T08:20:20.066Z,11.85
2018-10-18T08:22:48.318Z,10.13
2018-10-18T08:25:16.698Z,13.87
2018-10-18T08:27:44.891Z,11.33
2018-10-18T08:30:13.953Z,18.20
2018-10-18T08:32:42.272Z,7.33
2018-10-18T08:35:11.675Z,13.43
2018-10-18T08:37:40.015Z,10.50
2018-10-18T08:40:08.325Z,9.10
2018-10-18T08:42:36.657Z,6.93
2018-10-18T08:45:06.003Z,9.10
2018-10-18T08:47:34.301Z,9.33
2018-10-18T08:50:02.657Z,5.50
2018-10-18T08:52:30.937Z,11.10
2018-10-18T08:54:59.288Z,5.20
2018-10-18T08:57:27.530Z,6.53
2018-10-18T08:59:55.921Z,11.03
2018-10-18T09:02:24.320Z,7.70
2018-10-18T09:04:52.614Z,4.37
2018-10-18T09:07:20.927Z,5.33
2018-10-18T09:09:49.203Z,6.07
2018-10-18T09:12:18.417Z,7.00
2018-10-18T09:14:46.728Z,7.77
2018-10-18T09:17:14.986Z,9.10
2018-10-18T09:19:43.257Z,8.63
2018-10-18T09:22:11.518Z,8.90
2018-10-18T09:24:39.818Z,13.07
2018-10-18T09:27:08.057Z,6.77
2018-10-18T09:29:36.338Z,5.70
2018-10-18T09:32:04.926Z,9.83
2018-10-18T09:34:33.495Z,6.73
2018-10-18T09:37:01.768Z,6.20
2018-10-18T09:39:30.025Z,5.50
2018-10-18T09:41:58.341Z,5.27
2018-10-18T09:44:26.712Z,6.63
2018-10-18T09:46:55.047Z,5.73
2018-10-18T09:49:24.299Z,5.67
2018-10-18T09:51:52.623Z,5.13
2018-10-18T09:54:21.107Z,6.03
2018-10-18T09:56:49.379Z,5.40
2018-10-18T09:59:17.677Z,3.53
2018-10-18T10:02:50.750Z,3.90
2018-10-18T10:05:20.102Z,5.57
2018-10-18T10:07:48.331Z,5.10
2018-10-18T10:10:16.601Z,4.67
2018-10-18T10:12:44.860Z,6.10
2018-10-18T10:15:13.216Z,3.03
2018-10-18T10:17:41.671Z,6.80
2018-10-18T10:20:09.865Z,3.20
2018-10-18T10:22:38.101Z,5.63
2018-10-18T10:25:06.601Z,6.10
2018-10-18T10:27:34.850Z,3.37
2018-10-18T10:30:03.221Z,5.40
2018-10-18T10:32:31.494Z,5.03
2018-10-18T10:34:59.818Z,4.23
2018-10-18T10:37:28.068Z,2.67
2018-10-18T10:39:56.448Z,6.57
2018-10-18T10:42:24.625Z,4.77
2018-10-18T10:44:52.903Z,5.60
2018-10-18T10:47:21.185Z,7.83
2018-10-18T10:49:49.465Z,4.47
2018-10-18T10:52:17.826Z,5.83
2018-10-18T10:54:46.006Z,6.33
2018-10-18T10:57:14.370Z,4.13
2018-10-18T10:59:42.582Z,3.83
2018-10-18T11:02:10.980Z,5.03
2018-10-18T11:04:39.269Z,6.60
2018-10-18T11:07:07.498Z,3.27
2018-10-18T11:09:35.822Z,4.60
2018-10-18T11:12:04.315Z,3.50
2018-10-18T11:14:32.515Z,4.73
2018-10-18T11:17:00.868Z,5.57
2018-10-18T11:19:29.123Z,4.50
2018-10-18T11:21:57.361Z,5.80
2018-10-18T11:24:25.647Z,5.03
2018-10-18T11:26:54.026Z,3.67
2018-10-18T11:29:22.302Z,4.87
2018-10-18T11:31:50.550Z,2.33
2018-10-18T11:34:18.865Z,3.73
2018-10-18T11:36:47.271Z,5.57
2018-10-18T11:39:15.492Z,4.23
2018-10-18T11:41:43.815Z,4.27
2018-10-18T11:44:13.020Z,5.90
2018-10-18T11:46:41.338Z,4.50
2018-10-18T11:49:09.618Z,5.53
2018-10-18T11:51:38.009Z,4.20
2018-10-18T11:54:06.482Z,3.53
2018-10-18T11:56:34.653Z,2.10
2018-10-18T11:59:03.462Z,5.13
2018-10-18T12:01:31.799Z,4.50
2018-10-18T12:04:00.078Z,2.20
2018-10-18T12:06:28.448Z,2.57
2018-10-18T12:08:56.728Z,6.30
2018-10-18T12:11:24.977Z,3.60
2018-10-18T12:13:53.219Z,4.00
2018-10-18T12:16:21.540Z,8.20
2018-10-18T12:18:49.893Z,6.00
2018-10-18T12:21:18.224Z,3.57
2018-10-18T12:23:46.536Z,5.33
2018-10-18T12:26:14.848Z,3.67
2018-10-18T12:28:43.085Z,3.20
2018-10-18T12:31:12.114Z,6.20
2018-10-18T12:33:40.378Z,3.20
2018-10-18T12:36:08.693Z,6.33
2018-10-18T12:38:37.096Z,3.30
2018-10-18T12:41:05.647Z,4.73
2018-10-18T12:43:33.822Z,3.70
2018-10-18T12:46:02.132Z,2.00
2018-10-18T12:48:30.498Z,4.40
2018-10-18T12:53:40.770Z,3.80
2018-10-18T12:56:09.131Z,5.20
2018-10-18T12:58:37.966Z,3.70
2018-10-18T13:01:06.340Z,6.00
2018-10-18T13:03:34.773Z,2.60
2018-10-18T13:06:03.059Z,1.93
2018-10-18T13:08:31.276Z,3.23
2018-10-18T13:10:59.571Z,5.43
2018-10-18T13:13:27.826Z,2.80
2018-10-18T13:15:56.200Z,3.80
2018-10-18T13:18:24.551Z,4.00
2018-10-18T13:20:52.853Z,2.97
2018-10-18T13:23:21.249Z,1.80
2018-10-18T13:25:49.518Z,4.17
2018-10-18T13:28:17.826Z,3.53
2018-10-18T13:30:46.219Z,4.67
2018-10-18T13:33:14.494Z,4.60
2018-10-18T13:35:42.807Z,4.00
2018-10-18T13:38:11.182Z,3.87
2018-10-18T13:40:39.466Z,3.50
2018-10-18T13:43:11.089Z,8.13
2018-10-18T13:45:39.389Z,1.80
2018-10-18T13:48:07.710Z,3.80
2018-10-18T13:50:36.085Z,5.47
2018-10-18T13:53:04.401Z,5.27
2018-10-18T13:55:32.719Z,7.47
2018-10-18T13:58:01.366Z,2.60
2018-10-18T14:00:30.673Z,4.53
2018-10-18T14:02:58.956Z,5.40
2018-10-18T14:05:27.816Z,4.03
2018-10-18T14:07:56.517Z,2.63
2018-10-18T14:10:24.905Z,1.47
2018-10-18T14:12:53.692Z,2.67
2018-10-18T14:15:22.078Z,3.20
2018-10-18T14:17:50.458Z,2.97
2018-10-18T14:20:18.824Z,2.33
2018-10-18T14:22:47.012Z,3.20
2018-10-18T14:25:15.225Z,4.20
2018-10-18T14:27:43.607Z,5.07
2018-10-18T14:30:13.147Z,3.50
2018-10-18T14:32:41.325Z,2.27
2018-10-18T14:35:10.911Z,4.43
2018-10-18T14:37:39.186Z,2.27
2018-10-18T14:40:08.834Z,1.93
2018-10-18T14:42:37.120Z,3.77
2018-10-18T14:45:06.888Z,1.87
2018-10-18T14:47:35.128Z,4.20
2018-10-18T14:50:03.496Z,3.53
2018-10-18T14:52:31.865Z,1.60
2018-10-18T14:55:00.301Z,5.20
2018-10-18T14:57:28.592Z,1.47
2018-10-18T14:59:57.284Z,3.60
2018-10-18T15:02:25.569Z,2.93
2018-10-18T15:04:53.815Z,3.47
2018-10-18T15:07:22.170Z,1.80
2018-10-18T15:09:50.526Z,5.37
2018-10-18T15:12:19.231Z,6.07
2018-10-18T15:14:47.573Z,3.03
2018-10-18T15:17:16.003Z,4.20
2018-10-18T15:19:44.232Z,4.23
2018-10-18T15:22:12.457Z,2.87
2018-10-18T15:24:40.896Z,5.67
2018-10-18T15:27:09.290Z,2.43
2018-10-18T15:29:37.487Z,4.35
2018-10-18T15:32:05.890Z,3.80
2018-10-18T15:34:34.203Z,4.97
2018-10-18T15:37:02.530Z,4.30
2018-10-18T15:39:30.996Z,3.52
2018-10-18T15:41:59.194Z,6.50
2018-10-18T15:44:27.527Z,3.23
2018-10-18T15:46:56.238Z,7.20
2018-10-18T15:49:24.494Z,3.50
2018-10-18T15:51:52.807Z,4.85
2018-10-18T15:54:21.208Z,3.70
2018-10-18T15:56:49.530Z,6.25
2018-10-18T15:59:17.890Z,3.05
2018-10-18T16:01:46.546Z,3.22
2018-10-18T16:04:14.841Z,5.85
2018-10-18T16:06:43.103Z,3.80
2018-10-18T16:09:12.989Z,3.87
2018-10-18T16:11:41.472Z,5.97
2018-10-18T16:14:09.905Z,6.05
2018-10-18T16:16:38.271Z,3.08
2018-10-18T16:19:06.582Z,3.42
2018-10-18T16:21:34.974Z,7.85
2018-10-18T16:24:03.550Z,8.05
2018-10-18T16:26:31.908Z,4.42
2018-10-18T16:29:00.418Z,5.60
2018-10-18T16:31:28.928Z,7.58
2018-10-18T16:33:57.363Z,3.35
2018-10-18T16:36:25.601Z,8.98
2018-10-18T16:38:53.991Z,5.97
2018-10-18T16:41:22.678Z,5.15
2018-10-18T16:43:50.851Z,4.45
2018-10-18T16:46:19.228Z,3.83
2018-10-18T16:48:47.581Z,4.72
2018-10-18T16:51:15.890Z,4.17
2018-10-18T16:53:44.250Z,4.83
2018-10-18T16:56:12.628Z,4.70
2018-10-18T16:58:41.066Z,7.97
2018-10-18T17:01:09.714Z,4.20
2018-10-18T17:03:38.063Z,4.60
2018-10-18T17:06:06.368Z,7.83
2018-10-18T17:08:34.707Z,3.83
2018-10-18T17:11:03.253Z,5.08
2018-10-18T17:13:31.858Z,6.90
2018-10-18T17:16:00.165Z,4.15
2018-10-18T17:18:28.776Z,9.83
2018-10-18T17:20:57.176Z,8.53
2018-10-18T17:23:25.533Z,8.40
2018-10-18T17:25:53.700Z,5.97
2018-10-18T17:28:21.975Z,7.10
2018-10-18T17:30:50.536Z,5.45
2018-10-18T17:33:18.885Z,6.20
2018-10-18T17:35:47.134Z,5.50
2018-10-18T17:38:15.576Z,3.17
2018-10-18T17:40:43.902Z,6.40
2018-10-18T17:43:12.165Z,5.80
2018-10-18T17:45:40.410Z,5.67
2018-10-18T17:48:08.802Z,7.12
2018-10-18T17:50:37.040Z,4.70
2018-10-18T17:53:05.502Z,6.42
2018-10-18T17:55:33.752Z,4.60
2018-10-18T17:58:02.135Z,8.83
2018-10-18T18:00:30.586Z,6.83
2018-10-18T18:02:58.757Z,5.75
2018-10-18T18:05:27.048Z,8.65
2018-10-18T18:07:55.351Z,8.75
2018-10-18T18:10:23.576Z,5.58
2018-10-18T18:12:51.842Z,7.92
2018-10-18T18:15:20.107Z,7.45
2018-10-18T18:17:48.384Z,5.40
2018-10-18T18:20:16.688Z,6.28
2018-10-18T18:22:45.152Z,3.75
2018-10-18T18:25:14.092Z,6.05
2018-10-18T18:27:42.514Z,4.47
2018-10-18T18:30:14.301Z,7.17
2018-10-18T18:32:42.907Z,5.58
2018-10-18T18:35:11.215Z,5.37
2018-10-18T18:37:39.534Z,8.63
2018-10-18T18:40:08.999Z,4.53
2018-10-18T18:42:37.549Z,10.13
2018-10-18T18:45:11.250Z,8.83
2018-10-18T18:47:39.479Z,8.50
2018-10-18T18:50:08.954Z,9.33
2018-10-18T18:52:37.378Z,6.15
2018-10-18T18:55:06.666Z,7.87
2018-10-18T18:57:35.046Z,6.55
2018-10-18T19:00:03.380Z,6.53
2018-10-18T19:02:31.600Z,6.97
2018-10-18T19:04:59.971Z,7.10
2018-10-18T19:07:28.367Z,5.85
2018-10-18T19:09:56.734Z,6.30
2018-10-18T19:12:25.209Z,4.95
2018-10-18T19:14:53.510Z,6.20
2018-10-18T19:17:21.870Z,5.72
2018-10-18T19:19:50.138Z,8.35
2018-10-18T19:22:18.405Z,7.67
2018-10-18T19:24:46.709Z,5.28
2018-10-18T19:27:14.990Z,8.28
2018-10-18T19:29:43.342Z,5.97
2018-10-18T19:32:11.799Z,7.42
2018-10-18T19:34:40.017Z,7.25
2018-10-18T19:37:08.420Z,6.90
2018-10-18T19:39:36.746Z,6.42
2018-10-18T19:42:05.270Z,5.65
2018-10-18T19:44:33.506Z,15.03
2018-10-18T19:47:01.786Z,6.95
2018-10-18T19:49:30.046Z,8.28
2018-10-18T19:51:58.405Z,9.60
2018-10-18T19:54:26.645Z,6.50
2018-10-18T19:56:54.966Z,7.62
2018-10-18T19:59:23.246Z,7.70
2018-10-18T20:01:51.646Z,6.22
2018-10-18T20:04:19.986Z,8.80
2018-10-18T20:06:48.322Z,7.80
2018-10-18T20:09:16.606Z,10.32
2018-10-18T20:11:46.357Z,6.58
2018-10-18T20:14:14.802Z,7.45
2018-10-18T20:16:43.203Z,7.85
2018-10-18T20:19:11.566Z,11.22
2018-10-18T20:21:39.813Z,7.03
2018-10-18T20:24:08.923Z,7.95
2018-10-18T20:26:37.253Z,8.53
2018-10-18T20:29:05.801Z,9.43
2018-10-18T20:31:34.687Z,7.00
2018-10-18T20:34:02.948Z,8.43
2018-10-18T20:36:31.374Z,6.20
2018-10-18T20:38:59.800Z,9.95
2018-10-18T20:41:28.611Z,10.28
2018-10-18T20:43:57.274Z,7.47
2018-10-18T20:46:25.587Z,5.70
2018-10-18T20:48:54.020Z,6.12
2018-10-18T20:51:22.292Z,8.48
2018-10-18T20:53:50.571Z,8.35
2018-10-18T20:56:18.900Z,5.85
2018-10-18T20:58:47.310Z,6.80
2018-10-18T21:01:15.515Z,6.67
2018-10-18T21:03:43.827Z,7.72
2018-10-18T21:06:12.141Z,12.07
2018-10-18T21:08:40.382Z,7.72
2018-10-18T21:11:08.664Z,6.97
2018-10-18T21:13:36.877Z,9.73
2018-10-18T21:16:05.827Z,11.48
2018-10-18T21:18:34.055Z,8.38
2018-10-18T21:21:02.526Z,8.88
2018-10-18T21:23:30.769Z,7.15
2018-10-18T21:25:59.294Z,10.60
2018-10-18T21:28:27.574Z,10.85
2018-10-18T21:30:55.833Z,12.20
2018-10-18T21:33:24.163Z,9.88
2018-10-18T21:35:52.426Z,6.65
2018-10-18T21:38:20.750Z,6.87
2018-10-18T21:40:49.033Z,5.95
2018-10-18T21:43:17.325Z,9.45
2018-10-18T21:45:45.579Z,8.55
2018-10-18T21:48:13.864Z,7.92
2018-10-18T21:50:42.412Z,6.40
2018-10-18T21:53:10.624Z,10.03
2018-10-18T21:55:38.832Z,9.38
2018-10-18T21:58:07.131Z,9.68
2018-10-18T22:00:45.802Z,7.87
2018-10-18T22:03:15.322Z,6.95
2018-10-18T22:05:44.534Z,9.08
2018-10-18T22:08:13.024Z,9.48
2018-10-18T22:10:41.616Z,8.28
2018-10-18T22:13:09.902Z,6.05
2018-10-18T22:15:38.413Z,6.22
2018-10-18T22:18:06.728Z,5.75
2018-10-18T22:20:34.965Z,7.40
2018-10-18T22:23:03.403Z,12.70
2018-10-18T22:25:31.723Z,6.35
2018-10-18T22:27:59.806Z,6.10
2018-10-18T22:30:28.068Z,6.70
2018-10-18T22:32:56.065Z,5.15
2018-10-18T22:35:24.282Z,4.95
2018-10-18T22:37:52.528Z,5.83
2018-10-18T22:40:20.750Z,9.85
2018-10-18T22:42:49.055Z,6.67
2018-10-18T22:45:17.039Z,7.03
2018-10-18T22:47:45.338Z,6.65
2018-10-18T22:50:13.566Z,7.20
2018-10-18T22:52:41.829Z,7.80
2018-10-18T22:55:10.055Z,6.62
2018-10-18T22:57:38.349Z,5.45
2018-10-18T23:00:07.354Z,7.12
2018-10-18T23:02:35.702Z,7.03
2018-10-18T23:05:04.052Z,4.90
2018-10-18T23:07:32.283Z,8.33
2018-10-18T23:10:00.575Z,6.75
2018-10-18T23:12:28.910Z,5.37
2018-10-18T23:14:57.312Z,7.67
2018-10-18T23:17:25.562Z,7.90
2018-10-18T23:19:53.937Z,7.25
2018-10-18T23:22:22.171Z,7.75
2018-10-18T23:24:51.135Z,4.40
2018-10-18T23:27:18.651Z,4.50
2018-10-18T23:29:46.946Z,7.08
2018-10-18T23:32:15.325Z,8.33
2018-10-18T23:34:43.615Z,9.45
2018-10-18T23:37:11.956Z,6.95
2018-10-18T23:39:40.262Z,5.67
2018-10-18T23:42:08.638Z,8.18
2018-10-18T23:44:36.904Z,6.62
2018-10-18T23:47:06.301Z,5.53
2018-10-18T23:49:34.637Z,7.95
2018-10-18T23:52:02.910Z,4.47
2018-10-18T23:54:31.244Z,11.12
2018-10-18T23:56:59.554Z,8.65
2018-10-18T23:59:27.858Z,12.40
